Time;durP1;ratioP1;P1;durP2;ratioP2;P2;SDS_P1;SDS_P2;PMS_P1;PMS_P2;Temp;Humidity;BMP_temperature;BMP_pressure;BME280_temperature;BME280_humidity;BME280_pressure;Samples;Min_cycle;Max_cycle;Signal;HPM_P1;HPM_P2
2021/06/21 00:01:37;;;;;;;8.20;4.17;;;;;;;;;;5115437;28;20433;-68
2021/06/21 00:04:05;;;;;;;6.97;4.40;;;;;;;;;;5115363;28;20440;-68
2021/06/21 00:06:32;;;;;;;4.50;3.80;;;;;;;;;;5115798;28;20442;-68
2021/06/21 00:08:59;;;;;;;5.63;4.50;;;;;;;;;;5114938;28;20483;-68
2021/06/21 00:11:26;;;;;;;4.73;4.07;;;;;;;;;;5115257;28;20532;-68
2021/06/21 00:13:55;;;;;;;11.00;4.03;;;;;;;;;;5115260;28;20512;-67
2021/06/21 00:16:22;;;;;;;7.63;4.47;;;;;;;;;;5115026;28;20452;-67
2021/06/21 00:18:50;;;;;;;5.20;3.87;;;;;;;;;;5115384;28;20435;-68
2021/06/21 00:21:17;;;;;;;5.30;4.80;;;;;;;;;;5115047;28;20919;-67
2021/06/21 00:23:44;;;;;;;7.77;4.87;;;;;;;;;;5114722;28;20443;-68
2021/06/21 00:26:11;;;;;;;9.57;4.30;;;;;;;;;;5114950;28;20517;-68
2021/06/21 00:28:38;;;;;;;7.43;4.53;;;;;;;;;;5114831;28;20505;-68
2021/06/21 00:31:07;;;;;;;5.90;4.83;;;;;;;;;;5115236;28;20435;-68
2021/06/21 00:33:34;;;;;;;10.00;5.27;;;;;;;;;;5115380;28;20440;-68
2021/06/21 00:36:01;;;;;;;4.90;4.50;;;;;;;;;;5114544;28;21007;-68
2021/06/21 00:38:28;;;;;;;7.43;4.93;;;;;;;;;;5114786;28;20810;-68
2021/06/21 00:40:56;;;;;;;5.53;4.77;;;;;;;;;;5114987;28;20525;-68
2021/06/21 00:43:23;;;;;;;11.70;6.37;;;;;;;;;;5115106;28;20474;-68
2021/06/21 00:45:50;;;;;;;7.13;6.17;;;;;;;;;;5114245;28;20538;-68
2021/06/21 00:48:19;;;;;;;6.47;5.20;;;;;;;;;;5114816;28;20478;-68
2021/06/21 00:50:46;;;;;;;8.90;6.63;;;;;;;;;;5114703;28;20867;-66
2021/06/21 00:53:14;;;;;;;9.00;5.90;;;;;;;;;;5114644;28;20533;-66
2021/06/21 00:55:42;;;;;;;12.33;7.40;;;;;;;;;;5114653;28;20493;-67
2021/06/21 00:58:09;;;;;;;8.30;6.27;;;;;;;;;;5114443;28;20443;-66
2021/06/21 01:00:36;;;;;;;7.93;7.23;;;;;;;;;;5114822;28;20531;-66
2021/06/21 01:03:05;;;;;;;9.40;7.60;;;;;;;;;;5114241;28;20435;-66
2021/06/21 01:05:35;;;;;;;11.00;8.83;;;;;;;;;;5113465;28;20448;-66
2021/06/21 01:08:02;;;;;;;9.40;8.40;;;;;;;;;;5113933;28;21040;-65
2021/06/21 01:10:30;;;;;;;10.00;8.80;;;;;;;;;;5114072;28;20481;-65
2021/06/21 01:13:09;;;;;;;9.83;7.93;;;;;;;;;;5114123;28;20508;-66
2021/06/21 01:15:39;;;;;;;9.50;8.53;;;;;;;;;;5114167;28;20850;-66
2021/06/21 01:18:09;;;;;;;15.47;8.53;;;;;;;;;;5113805;28;20519;-66
2021/06/21 01:20:49;;;;;;;8.73;7.90;;;;;;;;;;5114000;28;20452;-66
2021/06/21 01:23:34;;;;;;;13.43;9.30;;;;;;;;;;5113664;28;20430;-67
2021/06/21 01:26:06;;;;;;;10.33;9.30;;;;;;;;;;5114321;28;20425;-66
2021/06/21 01:28:38;;;;;;;10.83;9.77;;;;;;;;;;5113697;28;20481;-66
2021/06/21 01:31:08;;;;;;;12.47;9.10;;;;;;;;;;5113565;28;20508;-66
2021/06/21 01:33:38;;;;;;;15.07;10.40;;;;;;;;;;5113962;28;20422;-66
2021/06/21 01:36:08;;;;;;;13.47;10.80;;;;;;;;;;5113432;28;21004;-66
2021/06/21 01:38:37;;;;;;;20.13;11.90;;;;;;;;;;5113682;28;20443;-66
2021/06/21 01:41:06;;;;;;;12.27;11.17;;;;;;;;;;5113695;28;20853;-67
2021/06/21 01:43:35;;;;;;;12.63;11.43;;;;;;;;;;5113620;28;20443;-66
2021/06/21 01:46:04;;;;;;;15.97;14.33;;;;;;;;;;5113248;28;20835;-67
2021/06/21 01:48:32;;;;;;;15.73;12.77;;;;;;;;;;5113242;28;20501;-67
2021/06/21 01:51:02;;;;;;;15.30;12.90;;;;;;;;;;5113545;28;20523;-67
2021/06/21 01:53:32;;;;;;;10.97;9.87;;;;;;;;;;5114447;28;20438;-68
2021/06/21 01:56:00;;;;;;;15.27;13.13;;;;;;;;;;5113928;28;20439;-69
2021/06/21 01:58:28;;;;;;;17.13;11.60;;;;;;;;;;5113893;28;20449;-69
2021/06/21 02:00:55;;;;;;;16.83;11.97;;;;;;;;;;5114180;28;20531;-70
2021/06/21 02:03:23;;;;;;;15.40;13.80;;;;;;;;;;5113643;28;20447;-70
2021/06/21 02:05:51;;;;;;;12.90;11.70;;;;;;;;;;5113310;28;20439;-70
2021/06/21 02:08:20;;;;;;;14.93;12.03;;;;;;;;;;5113675;28;20534;-70
2021/06/21 02:10:49;;;;;;;14.63;13.30;;;;;;;;;;5113697;28;20521;-71
2021/06/21 02:13:17;;;;;;;16.97;13.10;;;;;;;;;;5113632;28;20443;-70
2021/06/21 02:15:44;;;;;;;17.27;15.60;;;;;;;;;;5113537;28;20435;-71
2021/06/21 02:18:12;;;;;;;20.30;17.30;;;;;;;;;;5117211;28;20564;-70
2021/06/21 02:20:40;;;;;;;21.83;18.57;;;;;;;;;;5117177;28;20447;-70
2021/06/21 02:23:08;;;;;;;23.00;20.67;;;;;;;;;;5117574;28;20884;-70
2021/06/21 02:25:37;;;;;;;25.77;18.80;;;;;;;;;;5117741;28;20435;-71
2021/06/21 02:28:04;;;;;;;25.70;21.10;;;;;;;;;;5117782;28;20440;-70
2021/06/21 02:30:33;;;;;;;22.67;20.27;;;;;;;;;;5117564;28;20517;-70
2021/06/21 02:33:01;;;;;;;23.43;20.97;;;;;;;;;;5117179;28;20446;-71
2021/06/21 02:35:29;;;;;;;22.40;20.10;;;;;;;;;;5117191;28;20439;-70
2021/06/21 02:37:56;;;;;;;22.90;18.90;;;;;;;;;;5117159;28;20444;-71
2021/06/21 02:40:25;;;;;;;28.13;20.57;;;;;;;;;;5116802;28;20952;-71
2021/06/21 02:42:54;;;;;;;26.10;20.23;;;;;;;;;;5116914;28;20474;-71
2021/06/21 02:45:21;;;;;;;27.90;23.13;;;;;;;;;;5116636;28;20522;-71
2021/06/21 02:47:48;;;;;;;26.43;23.60;;;;;;;;;;5117241;28;20447;-70
2021/06/21 02:50:16;;;;;;;26.07;23.27;;;;;;;;;;5117514;28;20585;-70
2021/06/21 02:52:50;;;;;;;25.43;21.80;;;;;;;;;;5116816;28;20486;-70
2021/06/21 02:55:22;;;;;;;21.80;19.50;;;;;;;;;;5117121;28;20938;-70
2021/06/21 02:57:53;;;;;;;22.63;20.23;;;;;;;;;;5116850;28;20835;-70
2021/06/21 03:00:22;;;;;;;24.20;21.80;;;;;;;;;;5116917;28;20446;-70
2021/06/21 03:02:49;;;;;;;23.20;20.30;;;;;;;;;;5117127;28;20443;-70
2021/06/21 03:05:18;;;;;;;28.70;22.80;;;;;;;;;;5116660;28;20525;-70
2021/06/21 03:07:46;;;;;;;21.33;19.07;;;;;;;;;;5116236;28;20954;-70
2021/06/21 03:10:14;;;;;;;22.60;18.00;;;;;;;;;;5116446;28;20562;-72
2021/06/21 03:12:43;;;;;;;22.17;19.17;;;;;;;;;;5116778;28;20950;-71
2021/06/21 03:15:11;;;;;;;20.27;18.27;;;;;;;;;;5116350;28;20525;-71
2021/06/21 03:17:40;;;;;;;22.27;19.87;;;;;;;;;;5116215;28;20470;-70
2021/06/21 03:20:07;;;;;;;20.93;18.73;;;;;;;;;;5116365;28;20447;-71
2021/06/21 03:22:37;;;;;;;20.77;18.70;;;;;;;;;;5116534;28;20474;-71
2021/06/21 03:25:04;;;;;;;22.33;19.93;;;;;;;;;;5115966;28;20447;-71
2021/06/21 03:27:32;;;;;;;20.53;18.57;;;;;;;;;;5115762;28;20439;-71
2021/06/21 03:29:59;;;;;;;21.90;19.33;;;;;;;;;;5116936;28;20477;-71
2021/06/21 03:32:27;;;;;;;18.60;15.67;;;;;;;;;;5116173;28;20441;-70
2021/06/21 03:34:57;;;;;;;16.13;14.27;;;;;;;;;;5116087;28;20439;-70
2021/06/21 03:37:24;;;;;;;18.23;14.80;;;;;;;;;;5116387;28;20449;-70
2021/06/21 03:39:51;;;;;;;15.70;14.00;;;;;;;;;;5116104;28;20446;-70
2021/06/21 03:42:19;;;;;;;18.60;15.17;;;;;;;;;;5115623;28;20474;-70
2021/06/21 03:44:46;;;;;;;15.10;13.60;;;;;;;;;;5115568;28;21023;-70
2021/06/21 03:47:14;;;;;;;15.83;14.30;;;;;;;;;;5115500;28;20545;-70
2021/06/21 03:49:41;;;;;;;16.83;14.80;;;;;;;;;;5115902;28;20480;-70
2021/06/21 03:52:10;;;;;;;14.03;12.73;;;;;;;;;;5115807;28;20525;-70
2021/06/21 03:54:37;;;;;;;18.03;14.40;;;;;;;;;;5115694;28;20788;-70
2021/06/21 03:57:05;;;;;;;15.43;13.87;;;;;;;;;;5115329;28;20939;-70
2021/06/21 03:59:32;;;;;;;17.53;12.87;;;;;;;;;;5115535;28;20936;-70
2021/06/21 04:02:00;;;;;;;14.57;13.17;;;;;;;;;;5115207;28;20435;-70
2021/06/21 04:04:27;;;;;;;14.83;13.20;;;;;;;;;;5115563;28;20850;-70
2021/06/21 04:06:55;;;;;;;14.43;12.03;;;;;;;;;;5115082;28;20443;-70
2021/06/21 04:09:24;;;;;;;16.10;12.27;;;;;;;;;;5114948;28;21001;-70
2021/06/21 04:11:51;;;;;;;13.97;12.57;;;;;;;;;;5115023;28;20445;-69
2021/06/21 04:14:19;;;;;;;13.67;12.27;;;;;;;;;;5114899;28;20944;-70
2021/06/21 04:16:46;;;;;;;15.40;11.83;;;;;;;;;;5115487;28;20963;-70
2021/06/21 04:19:13;;;;;;;12.97;11.57;;;;;;;;;;5115504;28;20441;-74
2021/06/21 04:21:40;;;;;;;11.60;10.50;;;;;;;;;;5115402;28;20478;-68
2021/06/21 04:24:08;;;;;;;12.80;11.10;;;;;;;;;;5115126;28;20521;-71
2021/06/21 04:26:38;;;;;;;12.13;11.03;;;;;;;;;;5114672;28;20951;-71
2021/06/21 04:29:06;;;;;;;14.63;12.33;;;;;;;;;;5120639;27;20974;-72
2021/06/21 04:31:33;;;;;;;12.50;11.30;;;;;;;;;;5126642;27;20469;-72
2021/06/21 04:34:00;;;;;;;11.30;10.20;;;;;;;;;;5135163;27;20939;-71
2021/06/21 04:36:27;;;;;;;11.33;10.13;;;;;;;;;;5135039;27;20450;-72
2021/06/21 04:38:55;;;;;;;10.50;9.33;;;;;;;;;;5134522;27;20441;-72
2021/06/21 04:41:22;;;;;;;10.90;9.80;;;;;;;;;;5135514;27;20493;-71
2021/06/21 04:43:50;;;;;;;10.33;9.43;;;;;;;;;;5134975;27;20438;-72
2021/06/21 04:46:18;;;;;;;9.27;8.43;;;;;;;;;;5135193;27;20794;-71
2021/06/21 04:48:48;;;;;;;11.00;9.93;;;;;;;;;;5135246;27;20530;-71
2021/06/21 04:51:18;;;;;;;11.10;10.00;;;;;;;;;;5135265;27;20510;-71
2021/06/21 04:53:48;;;;;;;10.97;9.90;;;;;;;;;;5135527;27;20767;-71
2021/06/21 04:56:15;;;;;;;10.97;9.87;;;;;;;;;;5135102;27;20811;-71
2021/06/21 04:58:42;;;;;;;9.87;8.87;;;;;;;;;;5130235;27;20790;-71
2021/06/21 05:01:11;;;;;;;12.07;8.93;;;;;;;;;;5114309;28;20446;-71
2021/06/21 05:03:38;;;;;;;9.13;8.33;;;;;;;;;;5114346;28;20931;-71
2021/06/21 05:06:05;;;;;;;10.97;9.70;;;;;;;;;;5114527;28;20799;-70
2021/06/21 05:08:33;;;;;;;9.30;8.30;;;;;;;;;;5114008;28;20436;-71
2021/06/21 05:11:00;;;;;;;9.63;7.60;;;;;;;;;;5114604;28;20533;-71
2021/06/21 05:13:28;;;;;;;9.83;8.73;;;;;;;;;;5113742;28;20958;-70
2021/06/21 05:15:55;;;;;;;9.57;8.57;;;;;;;;;;5113726;28;20435;-70
2021/06/21 05:18:25;;;;;;;8.93;8.07;;;;;;;;;;5134312;27;20564;-70
2021/06/21 05:20:52;;;;;;;8.70;8.00;;;;;;;;;;5134428;27;20953;-71
2021/06/21 05:23:19;;;;;;;8.37;7.57;;;;;;;;;;5117416;27;20792;-71
2021/06/21 05:25:46;;;;;;;7.73;6.97;;;;;;;;;;5114140;28;20803;-71
2021/06/21 05:28:14;;;;;;;8.60;7.57;;;;;;;;;;5114171;28;20435;-70
2021/06/21 05:30:41;;;;;;;8.90;8.00;;;;;;;;;;5113943;28;20474;-70
2021/06/21 05:33:08;;;;;;;8.37;6.57;;;;;;;;;;5114332;28;21003;-70
2021/06/21 05:35:37;;;;;;;8.33;7.10;;;;;;;;;;5114266;28;20525;-70
2021/06/21 05:38:04;;;;;;;7.10;6.43;;;;;;;;;;5114208;28;20435;-73
2021/06/21 05:40:31;;;;;;;6.70;6.20;;;;;;;;;;5113640;28;20978;-68
2021/06/21 05:42:58;;;;;;;8.00;5.83;;;;;;;;;;5113980;28;20789;-69
2021/06/21 05:45:25;;;;;;;7.70;6.90;;;;;;;;;;5114006;28;20790;-69
2021/06/21 05:47:53;;;;;;;6.83;6.30;;;;;;;;;;5113537;28;20438;-68
2021/06/21 05:50:20;;;;;;;6.80;6.10;;;;;;;;;;5114580;28;21067;-69
2021/06/21 05:52:50;;;;;;;7.00;6.40;;;;;;;;;;5117675;28;20939;-69
2021/06/21 05:55:19;;;;;;;6.93;6.20;;;;;;;;;;5117945;28;20433;-68
2021/06/21 05:57:46;;;;;;;7.90;7.20;;;;;;;;;;5117779;28;20438;-68
2021/06/21 06:00:14;;;;;;;7.67;6.97;;;;;;;;;;5118056;28;20450;-69
2021/06/21 06:02:41;;;;;;;7.00;6.43;;;;;;;;;;5117562;28;21003;-68
2021/06/21 06:05:09;;;;;;;7.50;6.87;;;;;;;;;;5117892;28;20543;-68
2021/06/21 06:07:36;;;;;;;8.43;7.70;;;;;;;;;;5117433;28;20439;-68
2021/06/21 06:10:06;;;;;;;7.50;6.53;;;;;;;;;;5117874;28;20912;-68
2021/06/21 06:12:33;;;;;;;8.00;7.30;;;;;;;;;;5117877;28;20442;-68
2021/06/21 06:15:00;;;;;;;8.00;7.40;;;;;;;;;;5117303;28;20529;-68
2021/06/21 06:17:27;;;;;;;7.40;6.70;;;;;;;;;;5117558;28;20466;-68
2021/06/21 06:19:55;;;;;;;8.90;7.10;;;;;;;;;;5117424;28;20447;-68
2021/06/21 06:22:22;;;;;;;7.90;7.13;;;;;;;;;;5117620;28;20538;-69
2021/06/21 06:24:49;;;;;;;7.03;6.37;;;;;;;;;;5117866;28;20522;-68
2021/06/21 06:27:18;;;;;;;7.43;6.73;;;;;;;;;;5117442;28;20438;-69
2021/06/21 06:29:45;;;;;;;6.33;5.73;;;;;;;;;;5117337;28;20474;-68
2021/06/21 06:32:12;;;;;;;6.50;6.00;;;;;;;;;;5117152;28;20526;-68
2021/06/21 06:34:39;;;;;;;6.90;6.30;;;;;;;;;;5116466;28;20449;-69
2021/06/21 06:37:07;;;;;;;7.50;6.20;;;;;;;;;;5117188;28;20442;-68
2021/06/21 06:39:34;;;;;;;7.40;5.00;;;;;;;;;;5117160;28;20442;-68
2021/06/21 06:42:01;;;;;;;6.50;5.40;;;;;;;;;;5116825;28;20932;-68
2021/06/21 06:44:30;;;;;;;6.90;6.30;;;;;;;;;;5117218;28;20438;-68
2021/06/21 06:46:57;;;;;;;5.63;5.23;;;;;;;;;;5117793;28;20435;-69
2021/06/21 06:49:24;;;;;;;5.33;4.83;;;;;;;;;;5116726;28;20443;-68
2021/06/21 06:51:53;;;;;;;5.27;4.87;;;;;;;;;;5116747;28;20477;-68
2021/06/21 06:54:24;;;;;;;5.17;4.77;;;;;;;;;;5117082;28;20852;-68
2021/06/21 06:57:00;;;;;;;9.30;5.37;;;;;;;;;;5116812;28;20907;-68
2021/06/21 06:59:32;;;;;;;5.27;4.77;;;;;;;;;;5116553;28;20915;-68
2021/06/21 07:02:00;;;;;;;5.80;5.30;;;;;;;;;;5116493;28;20434;-68
2021/06/21 07:04:28;;;;;;;6.63;5.10;;;;;;;;;;5116945;28;20531;-68
2021/06/21 07:06:57;;;;;;;5.37;4.77;;;;;;;;;;5116350;28;20939;-68
2021/06/21 07:09:25;;;;;;;5.13;4.70;;;;;;;;;;5116639;28;20438;-68
2021/06/21 07:11:53;;;;;;;5.60;5.10;;;;;;;;;;5116742;28;20836;-67
2021/06/21 07:14:20;;;;;;;5.00;4.50;;;;;;;;;;5116531;28;20472;-68
2021/06/21 07:16:50;;;;;;;4.67;4.27;;;;;;;;;;5116203;28;20471;-68
2021/06/21 07:19:18;;;;;;;5.53;5.10;;;;;;;;;;5116562;28;20434;-68
2021/06/21 07:21:46;;;;;;;5.07;4.67;;;;;;;;;;5116371;28;20854;-69
2021/06/21 07:24:14;;;;;;;5.50;5.10;;;;;;;;;;5116351;28;20449;-69
2021/06/21 07:26:42;;;;;;;7.40;4.60;;;;;;;;;;5116245;28;20468;-68
2021/06/21 07:29:09;;;;;;;5.73;5.23;;;;;;;;;;5115929;28;20440;-68
2021/06/21 07:31:37;;;;;;;5.50;5.10;;;;;;;;;;5115836;28;20566;-69
2021/06/21 07:34:06;;;;;;;6.47;5.87;;;;;;;;;;5116114;28;20430;-68
2021/06/21 07:36:33;;;;;;;5.13;4.73;;;;;;;;;;5115769;28;20458;-68
2021/06/21 07:39:00;;;;;;;4.93;4.53;;;;;;;;;;5115664;28;20439;-68
2021/06/21 07:41:28;;;;;;;4.90;4.40;;;;;;;;;;5116386;28;20470;-68
2021/06/21 07:43:55;;;;;;;4.97;4.67;;;;;;;;;;5115941;28;20475;-68
2021/06/21 07:46:22;;;;;;;5.30;4.90;;;;;;;;;;5115800;28;20483;-68
2021/06/21 07:48:50;;;;;;;5.63;5.13;;;;;;;;;;5115543;28;20446;-68
2021/06/21 07:51:18;;;;;;;4.83;4.47;;;;;;;;;;5115978;28;20835;-68
2021/06/21 07:53:47;;;;;;;5.30;4.90;;;;;;;;;;5115402;28;20431;-68
2021/06/21 07:56:15;;;;;;;4.90;4.50;;;;;;;;;;5115701;28;20437;-68
2021/06/21 07:58:42;;;;;;;4.07;3.60;;;;;;;;;;5115658;28;20931;-68
2021/06/21 08:01:11;;;;;;;5.10;4.70;;;;;;;;;;5116163;28;20482;-68
2021/06/21 08:03:39;;;;;;;4.20;3.90;;;;;;;;;;5115547;28;20441;-68
2021/06/21 08:06:08;;;;;;;5.20;4.90;;;;;;;;;;5115243;28;20466;-68
2021/06/21 08:08:37;;;;;;;5.40;5.00;;;;;;;;;;5115102;28;20431;-68
2021/06/21 08:11:05;;;;;;;4.10;3.80;;;;;;;;;;5114990;28;20471;-68
2021/06/21 08:13:32;;;;;;;3.73;3.50;;;;;;;;;;5115065;28;20471;-68
2021/06/21 08:15:59;;;;;;;4.10;3.80;;;;;;;;;;5114795;28;20453;-68
2021/06/21 08:18:26;;;;;;;5.60;3.90;;;;;;;;;;5116485;28;20463;-68
2021/06/21 08:20:54;;;;;;;4.03;3.73;;;;;;;;;;5114804;28;20445;-68
2021/06/21 08:23:21;;;;;;;4.70;4.23;;;;;;;;;;5115203;28;20468;-68
2021/06/21 08:25:50;;;;;;;4.53;4.23;;;;;;;;;;5115140;28;20770;-67
2021/06/21 08:28:17;;;;;;;4.80;4.10;;;;;;;;;;5115086;28;20444;-67
2021/06/21 08:30:44;;;;;;;4.30;4.00;;;;;;;;;;5114886;28;20500;-67
2021/06/21 08:33:12;;;;;;;3.70;3.40;;;;;;;;;;5115246;28;20839;-68
2021/06/21 08:35:39;;;;;;;4.30;3.83;;;;;;;;;;5115283;28;20449;-68
2021/06/21 08:38:06;;;;;;;3.90;3.63;;;;;;;;;;5114504;28;20522;-68
2021/06/21 08:40:34;;;;;;;4.07;3.77;;;;;;;;;;5114470;28;20538;-68
2021/06/21 08:43:03;;;;;;;4.60;3.60;;;;;;;;;;5115375;28;20435;-68
2021/06/21 08:45:31;;;;;;;3.63;3.33;;;;;;;;;;5115219;28;20462;-68
2021/06/21 08:47:59;;;;;;;4.73;3.40;;;;;;;;;;5115003;28;21016;-68
2021/06/21 08:50:26;;;;;;;3.60;3.33;;;;;;;;;;5115091;28;20435;-68
2021/06/21 08:52:54;;;;;;;3.93;3.63;;;;;;;;;;5114743;28;20522;-68
2021/06/21 08:55:21;;;;;;;4.10;3.43;;;;;;;;;;5114606;28;20435;-68
2021/06/21 08:57:49;;;;;;;4.07;3.77;;;;;;;;;;5114590;28;20441;-68
2021/06/21 09:00:20;;;;;;;6.33;3.87;;;;;;;;;;5114613;28;20435;-68
2021/06/21 09:02:48;;;;;;;3.67;3.43;;;;;;;;;;5114722;28;20427;-68
2021/06/21 09:05:16;;;;;;;5.80;3.70;;;;;;;;;;5114170;28;20860;-68
2021/06/21 09:07:43;;;;;;;3.47;3.23;;;;;;;;;;5114521;28;20534;-68
2021/06/21 09:10:22;;;;;;;4.93;3.53;;;;;;;;;;5114391;28;20500;-68
2021/06/21 09:13:01;;;;;;;3.13;2.93;;;;;;;;;;5114917;28;20435;-67
2021/06/21 09:15:32;;;;;;;5.50;3.50;;;;;;;;;;5114299;28;20464;-67
2021/06/21 09:18:00;;;;;;;3.73;3.43;;;;;;;;;;5114434;28;20475;-68
2021/06/21 09:20:28;;;;;;;3.93;3.43;;;;;;;;;;5114130;28;20495;-67
2021/06/21 09:23:01;;;;;;;3.93;3.63;;;;;;;;;;5114191;28;20447;-68
2021/06/21 09:25:28;;;;;;;3.87;3.47;;;;;;;;;;5114573;28;20928;-68
2021/06/21 09:27:56;;;;;;;4.10;3.80;;;;;;;;;;5114347;28;20445;-67
2021/06/21 09:30:24;;;;;;;3.60;3.30;;;;;;;;;;5114353;28;20475;-67
2021/06/21 09:32:53;;;;;;;4.23;3.93;;;;;;;;;;5114705;28;20859;-68
2021/06/21 09:35:39;;;;;;;5.40;4.20;;;;;;;;;;5113663;28;20478;-68
2021/06/21 09:38:08;;;;;;;4.73;4.33;;;;;;;;;;5114000;28;20431;-68
2021/06/21 09:40:35;;;;;;;5.30;4.90;;;;;;;;;;5114012;28;20836;-68
2021/06/21 09:43:19;;;;;;;4.70;4.30;;;;;;;;;;5114278;28;20783;-68
2021/06/21 09:46:01;;;;;;;5.50;5.00;;;;;;;;;;5113709;28;20919;-68
2021/06/21 09:48:32;;;;;;;5.77;4.13;;;;;;;;;;5113660;28;20454;-68
2021/06/21 09:50:59;;;;;;;5.10;4.60;;;;;;;;;;5113569;28;20466;-68
2021/06/21 09:53:26;;;;;;;5.90;5.50;;;;;;;;;;5114240;28;20444;-68
2021/06/21 09:55:53;;;;;;;6.70;6.20;;;;;;;;;;5113848;28;20529;-67
2021/06/21 09:58:21;;;;;;;7.77;7.07;;;;;;;;;;5113872;28;20471;-68
2021/06/21 10:00:49;;;;;;;8.60;7.50;;;;;;;;;;5114081;28;20493;-68
2021/06/21 10:03:18;;;;;;;7.67;7.07;;;;;;;;;;5113702;28;20443;-68
2021/06/21 10:05:49;;;;;;;7.03;6.43;;;;;;;;;;5113472;28;20438;-68
2021/06/21 10:08:17;;;;;;;7.70;7.10;;;;;;;;;;5113527;28;20427;-68
2021/06/21 10:10:44;;;;;;;8.40;7.70;;;;;;;;;;5113699;28;20436;-67
2021/06/21 10:13:12;;;;;;;8.90;8.10;;;;;;;;;;5113702;28;20488;-68
2021/06/21 10:15:40;;;;;;;7.20;6.60;;;;;;;;;;5113367;28;20437;-67
2021/06/21 10:18:08;;;;;;;7.83;7.23;;;;;;;;;;5113419;28;20481;-68
2021/06/21 10:20:35;;;;;;;5.83;5.43;;;;;;;;;;5113571;28;20488;-67
2021/06/21 10:23:06;;;;;;;7.40;6.87;;;;;;;;;;5113557;28;20534;-68
2021/06/21 10:25:33;;;;;;;7.40;6.20;;;;;;;;;;5114131;28;20431;-68
2021/06/21 10:28:01;;;;;;;6.23;5.80;;;;;;;;;;5114198;28;20523;-68
2021/06/21 10:30:29;;;;;;;6.00;5.40;;;;;;;;;;5113211;28;20526;-68
2021/06/21 10:32:57;;;;;;;5.30;5.00;;;;;;;;;;5113479;28;20479;-68
2021/06/21 10:35:32;;;;;;;5.87;5.47;;;;;;;;;;5113189;28;20567;-68
2021/06/21 10:38:01;;;;;;;6.60;6.10;;;;;;;;;;5115165;28;20422;-68
2021/06/21 10:40:30;;;;;;;4.90;4.60;;;;;;;;;;5116993;28;20992;-68
2021/06/21 10:42:58;;;;;;;8.93;5.33;;;;;;;;;;5117266;28;20463;-68
2021/06/21 10:45:26;;;;;;;5.80;5.40;;;;;;;;;;5116715;28;20519;-68
2021/06/21 10:48:07;;;;;;;4.80;4.40;;;;;;;;;;5117276;28;20493;-68
2021/06/21 10:50:34;;;;;;;4.57;4.27;;;;;;;;;;5117408;28;20449;-68
2021/06/21 10:53:03;;;;;;;6.27;4.97;;;;;;;;;;5116810;28;20574;-68
2021/06/21 10:55:42;;;;;;;4.70;4.40;;;;;;;;;;5116982;28;20485;-67
2021/06/21 10:58:11;;;;;;;4.80;4.50;;;;;;;;;;5117383;28;20424;-69
2021/06/21 11:00:40;;;;;;;4.47;4.03;;;;;;;;;;5116552;28;20919;-67
2021/06/21 11:03:22;;;;;;;5.30;4.80;;;;;;;;;;5116566;28;21002;-68
2021/06/21 11:05:49;;;;;;;5.67;5.17;;;;;;;;;;5115957;28;20526;-68
2021/06/21 11:08:18;;;;;;;5.40;4.90;;;;;;;;;;5116948;28;20803;-67
2021/06/21 11:10:48;;;;;;;5.17;4.77;;;;;;;;;;5116960;28;20496;-67
2021/06/21 11:13:43;;;;;;;4.27;4.03;;;;;;;;;;5116605;28;20870;-68
2021/06/21 11:16:23;;;;;;;5.60;5.10;;;;;;;;;;5080128;28;20462;-68
2021/06/21 11:18:51;;;;;;;5.97;5.47;;;;;;;;;;5116353;28;20468;-68
2021/06/21 11:21:20;;;;;;;5.47;5.07;;;;;;;;;;5116467;28;20428;-68
2021/06/21 11:23:50;;;;;;;6.07;5.43;;;;;;;;;;5116584;28;20435;-69
2021/06/21 11:26:18;;;;;;;4.60;4.30;;;;;;;;;;5116020;28;20447;-68
2021/06/21 11:28:46;;;;;;;5.50;5.10;;;;;;;;;;5116172;28;20439;-69
2021/06/21 11:31:27;;;;;;;5.33;4.93;;;;;;;;;;5116317;28;20563;-68
2021/06/21 11:33:55;;;;;;;6.40;5.90;;;;;;;;;;5116272;28;20975;-68
2021/06/21 11:36:38;;;;;;;6.87;5.60;;;;;;;;;;5116184;28;20451;-68
2021/06/21 11:39:23;;;;;;;7.23;6.67;;;;;;;;;;5116087;28;20470;-68
2021/06/21 11:42:01;;;;;;;7.73;6.83;;;;;;;;;;5116487;28;20430;-69
2021/06/21 11:44:49;;;;;;;7.90;7.23;;;;;;;;;;5116021;28;20419;-69
2021/06/21 11:47:28;;;;;;;8.10;7.40;;;;;;;;;;5116159;28;20455;-70
2021/06/21 11:49:57;;;;;;;7.97;7.17;;;;;;;;;;5115175;28;20951;-68
2021/06/21 11:52:25;;;;;;;9.63;8.50;;;;;;;;;;5116437;28;20881;-69
2021/06/21 11:54:53;;;;;;;8.10;7.50;;;;;;;;;;5115693;28;20538;-68
2021/06/21 11:57:23;;;;;;;7.40;6.60;;;;;;;;;;5115414;28;20927;-68
2021/06/21 11:59:52;;;;;;;7.90;7.20;;;;;;;;;;5115653;28;20858;-68
2021/06/21 12:02:20;;;;;;;7.53;6.83;;;;;;;;;;5115583;28;20496;-69
2021/06/21 12:04:48;;;;;;;7.37;6.67;;;;;;;;;;5115273;28;20525;-67
2021/06/21 12:07:29;;;;;;;7.87;7.17;;;;;;;;;;5115185;28;20523;-67
2021/06/21 12:09:57;;;;;;;6.60;6.10;;;;;;;;;;5115639;28;20510;-68
2021/06/21 12:12:26;;;;;;;6.13;5.63;;;;;;;;;;5114995;28;20579;-68
2021/06/21 12:14:54;;;;;;;7.80;7.10;;;;;;;;;;5115329;28;20806;-68
2021/06/21 12:17:22;;;;;;;6.93;6.27;;;;;;;;;;5115224;28;20462;-67
2021/06/21 12:20:00;;;;;;;7.20;6.50;;;;;;;;;;5115188;28;20450;-67
2021/06/21 12:22:27;;;;;;;7.30;6.60;;;;;;;;;;5115725;28;20427;-68
2021/06/21 12:24:54;;;;;;;7.40;6.80;;;;;;;;;;5114857;28;20535;-69
2021/06/21 12:27:21;;;;;;;7.50;6.80;;;;;;;;;;5115108;28;20805;-67
2021/06/21 12:29:52;;;;;;;7.23;6.63;;;;;;;;;;5115250;28;20444;-67
2021/06/21 12:32:19;;;;;;;11.27;8.87;;;;;;;;;;5115890;28;20466;-68
2021/06/21 12:34:51;;;;;;;8.70;7.90;;;;;;;;;;5114971;28;20511;-67
2021/06/21 12:37:20;;;;;;;8.00;7.23;;;;;;;;;;5115084;28;20495;-67
2021/06/21 12:39:47;;;;;;;7.10;6.40;;;;;;;;;;5114884;28;20511;-67
2021/06/21 12:42:16;;;;;;;7.70;7.00;;;;;;;;;;5114510;28;20479;-68
2021/06/21 12:44:43;;;;;;;7.40;6.70;;;;;;;;;;5114864;28;20495;-72
2021/06/21 12:47:22;;;;;;;8.57;7.77;;;;;;;;;;5114610;28;20978;-70
2021/06/21 12:49:52;;;;;;;10.33;7.83;;;;;;;;;;5115063;28;20506;-69
2021/06/21 12:52:20;;;;;;;7.33;6.67;;;;;;;;;;5114207;28;20480;-70
2021/06/21 12:54:47;;;;;;;6.07;5.47;;;;;;;;;;5114310;28;20942;-69
2021/06/21 12:57:15;;;;;;;6.07;5.57;;;;;;;;;;5114802;28;20519;-70
2021/06/21 12:59:43;;;;;;;6.03;5.47;;;;;;;;;;5113993;28;20966;-69
2021/06/21 13:02:22;;;;;;;5.70;4.90;;;;;;;;;;5114034;28;20475;-70
2021/06/21 13:04:57;;;;;;;7.43;4.57;;;;;;;;;;5114738;28;20448;-70
2021/06/21 13:07:26;;;;;;;4.90;4.40;;;;;;;;;;5127046;27;20445;-71
2021/06/21 13:09:55;;;;;;;5.63;5.13;;;;;;;;;;5134642;27;20874;-71
2021/06/21 13:12:23;;;;;;;4.10;3.80;;;;;;;;;;5134783;27;20496;-71
2021/06/21 13:14:51;;;;;;;2.93;2.73;;;;;;;;;;5134785;27;20438;-71
2021/06/21 13:17:19;;;;;;;2.47;2.00;;;;;;;;;;5134178;27;20465;-72
2021/06/21 13:19:50;;;;;;;2.73;2.53;;;;;;;;;;5134436;27;20449;-74
2021/06/21 13:22:26;;;;;;;2.10;2.00;;;;;;;;;;5134387;27;20494;-73
2021/06/21 13:24:54;;;;;;;1.73;1.43;;;;;;;;;;5134661;27;20517;-72
2021/06/21 13:27:22;;;;;;;2.00;1.90;;;;;;;;;;5135085;27;20438;-71
2021/06/21 13:29:49;;;;;;;2.40;2.20;;;;;;;;;;5134421;27;20529;-72
2021/06/21 13:32:22;;;;;;;2.80;2.33;;;;;;;;;;5134486;27;20822;-72
2021/06/21 13:34:51;;;;;;;2.40;2.20;;;;;;;;;;5133455;28;20425;-71
2021/06/21 13:37:26;;;;;;;2.10;2.00;;;;;;;;;;5115527;28;20643;-70
2021/06/21 13:39:55;;;;;;;2.00;1.90;;;;;;;;;;5113518;28;20529;-70
2021/06/21 13:42:36;;;;;;;2.40;1.83;;;;;;;;;;5113841;28;20508;-70
2021/06/21 13:45:05;;;;;;;1.87;1.77;;;;;;;;;;5113499;28;20435;-70
2021/06/21 13:47:34;;;;;;;1.67;1.57;;;;;;;;;;5114125;28;20455;-69
2021/06/21 13:50:03;;;;;;;1.97;1.77;;;;;;;;;;5113766;28;20442;-70
2021/06/21 13:52:37;;;;;;;2.13;1.93;;;;;;;;;;5113894;28;20568;-68
2021/06/21 13:55:05;;;;;;;3.10;2.77;;;;;;;;;;5113530;28;20438;-68
2021/06/21 13:57:37;;;;;;;2.13;2.03;;;;;;;;;;5114033;28;20454;-69
2021/06/21 14:00:05;;;;;;;1.73;1.63;;;;;;;;;;5113331;28;20429;-68
2021/06/21 14:02:33;;;;;;;1.83;1.73;;;;;;;;;;5113622;28;20438;-68
2021/06/21 14:05:00;;;;;;;1.47;1.37;;;;;;;;;;5114378;28;20862;-68
2021/06/21 14:07:29;;;;;;;1.87;1.77;;;;;;;;;;5113559;28;20505;-68
2021/06/21 14:09:57;;;;;;;2.50;2.30;;;;;;;;;;5113573;28;20796;-68
2021/06/21 14:12:24;;;;;;;2.83;2.53;;;;;;;;;;5115764;28;20510;-68
2021/06/21 14:14:52;;;;;;;3.90;3.60;;;;;;;;;;5117789;28;20772;-68
2021/06/21 14:17:22;;;;;;;3.23;3.03;;;;;;;;;;5117857;28;20898;-68
2021/06/21 14:19:49;;;;;;;20.37;6.10;;;;;;;;;;5117327;28;20495;-68
2021/06/21 14:22:17;;;;;;;3.00;2.80;;;;;;;;;;5117177;28;20538;-68
2021/06/21 14:24:46;;;;;;;3.20;3.00;;;;;;;;;;5117165;28;20920;-68
2021/06/21 14:27:13;;;;;;;3.53;3.33;;;;;;;;;;5117064;28;20438;-68
2021/06/21 14:29:41;;;;;;;3.10;2.90;;;;;;;;;;5116828;28;20525;-68
2021/06/21 14:32:09;;;;;;;6.03;3.90;;;;;;;;;;5116995;28;20430;-68
2021/06/21 14:34:36;;;;;;;3.30;3.00;;;;;;;;;;5116840;28;20455;-69
2021/06/21 14:37:04;;;;;;;2.80;2.43;;;;;;;;;;5116826;28;20434;-69
2021/06/21 14:39:31;;;;;;;2.77;2.60;;;;;;;;;;5117355;28;20529;-69
2021/06/21 14:42:00;;;;;;;2.77;2.67;;;;;;;;;;5116892;28;20517;-70
2021/06/21 14:44:27;;;;;;;2.90;2.80;;;;;;;;;;5117037;28;20931;-70
2021/06/21 14:46:54;;;;;;;2.97;2.77;;;;;;;;;;5116779;28;20452;-70